KEFD/EFD METAR and TAF weather

Enter ICAO airport designator
Station Type Date Time Source
KEFD METAR 2021/01/17 17:50 UTC NOAA

KEFD 171750Z 26007KT 9SM CLR 18/M04 A3012


Station Type Date Time Source
KEFD Decoded METAR 2021/01/17 17:50 UTC NOAA

Houston / Ellington, TX, United States (KEFD) 29-36N 095-10W
Jan 17, 2021 - 12:50 PM EST / 2021.01.17 1750 UTC
Wind: from the W (260 degrees) at 8 MPH (7 KT):0
Visibility: 9 mile(s):0
Sky conditions: clear
Temperature: 64 F (18 C)
Dew Point: 24 F (-4 C)
Relative Humidity: 22%
Pressure (altimeter): 30.12 in. Hg (1019 hPa)
ob: KEFD 171750Z 26007KT 9SM CLR 18/M04 A3012
cycle: 18

Station Type Date Time Source
KEFD TAF 2021/01/17 12:20 UTC NOAA

TAF KEFD 171200Z 1712/1818 VRB06KT 9999 SCT100 QNH3007INS TX18/1718Z TN02/1713Z

Example: see airport list